createdAt,value
2018-04-09T00:01:50.167Z,22.00
2018-04-09T00:04:20.113Z,21.20
2018-04-09T00:06:52.191Z,22.33
2018-04-09T00:09:26.655Z,22.37
2018-04-09T00:11:55.768Z,22.50
2018-04-09T00:14:23.928Z,21.73
2018-04-09T00:16:55.195Z,22.80
2018-04-09T00:19:27.481Z,23.20
2018-04-09T00:21:57.361Z,23.87
2018-04-09T00:24:25.519Z,23.77
2018-04-09T00:26:53.687Z,23.27
2018-04-09T00:29:21.934Z,22.90
2018-04-09T00:31:51.047Z,23.90
2018-04-09T00:34:19.189Z,25.47
2018-04-09T00:36:47.364Z,25.17
2018-04-09T00:39:15.493Z,24.57
2018-04-09T00:41:43.645Z,24.80
2018-04-09T00:44:11.798Z,24.40
2018-04-09T00:46:39.935Z,24.20
2018-04-09T00:49:08.096Z,24.77
2018-04-09T00:51:37.234Z,24.00
2018-04-09T00:54:05.396Z,26.23
2018-04-09T00:56:34.737Z,24.43
2018-04-09T00:59:03.879Z,24.00
2018-04-09T01:01:32.237Z,25.87
2018-04-09T01:04:01.297Z,23.60
2018-04-09T01:06:29.990Z,25.63
2018-04-09T01:08:58.144Z,25.73
2018-04-09T01:11:26.312Z,25.27
2018-04-09T01:13:54.635Z,25.20
2018-04-09T01:16:23.585Z,26.00
2018-04-09T01:18:52.311Z,27.37
2018-04-09T01:21:21.269Z,26.57
2018-04-09T01:23:49.401Z,27.57
2018-04-09T01:26:18.283Z,28.20
2018-04-09T01:28:47.197Z,29.03
2018-04-09T01:31:15.332Z,25.27
2018-04-09T01:33:44.263Z,28.70
2018-04-09T01:36:12.409Z,26.97
2018-04-09T01:38:40.551Z,28.17
2018-04-09T01:41:08.714Z,27.73
2018-04-09T01:43:36.899Z,26.77
2018-04-09T01:46:05.063Z,28.23
2018-04-09T01:48:33.242Z,27.63
2018-04-09T01:51:01.406Z,27.13
2018-04-09T01:53:29.589Z,28.67
2018-04-09T01:55:57.754Z,27.00
2018-04-09T01:58:25.934Z,28.90
2018-04-09T02:00:55.213Z,27.70
2018-04-09T02:03:23.362Z,29.43
2018-04-09T02:05:51.505Z,27.77
2018-04-09T02:08:20.610Z,29.03
2018-04-09T02:10:48.815Z,27.87
2018-04-09T02:13:16.979Z,28.10
2018-04-09T02:15:45.286Z,28.10
2018-04-09T02:18:13.648Z,27.27
2018-04-09T02:20:41.810Z,26.50
2018-04-09T02:23:09.952Z,28.03
2018-04-09T02:25:38.099Z,29.67
2018-04-09T02:28:07.073Z,30.67
2018-04-09T02:30:35.264Z,27.90
2018-04-09T02:33:03.432Z,30.43
2018-04-09T02:35:31.591Z,26.07
2018-04-09T02:37:59.748Z,28.00
2018-04-09T02:40:27.887Z,30.17
2018-04-09T02:42:56.032Z,29.97
2018-04-09T02:45:24.177Z,31.73
2018-04-09T02:47:52.348Z,29.00
2018-04-09T02:50:20.512Z,28.57
2018-04-09T02:52:48.698Z,29.33
2018-04-09T02:55:16.861Z,29.27
2018-04-09T02:57:44.999Z,28.50
2018-04-09T03:00:13.172Z,30.30
2018-04-09T03:02:41.348Z,30.17
2018-04-09T03:05:09.534Z,30.87
2018-04-09T03:07:37.784Z,32.73
2018-04-09T03:10:05.934Z,31.63
2018-04-09T03:12:34.088Z,30.77
2018-04-09T03:15:02.242Z,32.73
2018-04-09T03:17:30.436Z,32.30
2018-04-09T03:19:58.629Z,31.40
2018-04-09T03:22:26.814Z,31.57
2018-04-09T03:24:54.984Z,34.70
2018-04-09T03:27:23.896Z,31.57
2018-04-09T03:29:52.043Z,30.63
2018-04-09T03:32:20.186Z,32.77
2018-04-09T03:34:48.341Z,32.60
2018-04-09T03:37:16.517Z,32.07
2018-04-09T03:39:44.689Z,30.30
2018-04-09T03:42:12.839Z,31.97
2018-04-09T03:44:41.046Z,33.57
2018-04-09T03:47:09.179Z,32.87
2018-04-09T03:49:37.344Z,31.93
2018-04-09T03:52:05.486Z,33.40
2018-04-09T03:54:33.605Z,33.50
2018-04-09T03:57:01.758Z,33.17
2018-04-09T03:59:29.902Z,33.67
2018-04-09T04:01:58.818Z,33.77
2018-04-09T04:04:26.971Z,32.47
2018-04-09T04:06:55.103Z,36.27
2018-04-09T04:09:23.274Z,33.30
2018-04-09T04:11:51.474Z,35.30
2018-04-09T04:14:19.627Z,35.67
2018-04-09T04:17:05.639Z,35.63
2018-04-09T04:19:51.948Z,34.80
2018-04-09T04:22:20.114Z,34.93
2018-04-09T04:24:49.076Z,34.97
2018-04-09T04:27:17.293Z,35.43
2018-04-09T04:29:46.221Z,35.03
2018-04-09T04:32:14.615Z,34.57
2018-04-09T04:34:42.789Z,34.20
2018-04-09T04:37:10.963Z,34.73
2018-04-09T04:39:39.126Z,36.27
2018-04-09T04:42:07.278Z,36.73
2018-04-09T04:44:36.228Z,35.50
2018-04-09T04:47:04.386Z,35.67
2018-04-09T04:49:32.548Z,34.17
2018-04-09T04:52:00.726Z,33.93
2018-04-09T04:54:28.987Z,33.37
2018-04-09T04:56:57.143Z,34.70
2018-04-09T04:59:25.273Z,34.70
2018-04-09T05:01:53.423Z,34.67
2018-04-09T05:04:21.555Z,33.83
2018-04-09T05:06:50.359Z,35.67
2018-04-09T05:09:18.510Z,34.03
2018-04-09T05:11:46.691Z,35.37
2018-04-09T05:14:14.925Z,34.93
2018-04-09T05:16:43.059Z,36.23
2018-04-09T05:19:11.229Z,37.20
2018-04-09T05:21:39.368Z,37.10
2018-04-09T05:24:07.543Z,35.87
2018-04-09T05:26:35.734Z,36.63
2018-04-09T05:29:03.964Z,36.47
2018-04-09T05:31:32.958Z,34.17
2018-04-09T05:34:01.094Z,36.23
2018-04-09T05:36:29.241Z,34.63
2018-04-09T05:38:57.416Z,34.07
2018-04-09T05:41:25.555Z,38.67
2018-04-09T05:43:53.745Z,34.27
2018-04-09T05:46:21.959Z,38.47
2018-04-09T05:48:50.099Z,36.20
2018-04-09T05:51:18.271Z,35.50
2018-04-09T05:53:46.417Z,36.90
2018-04-09T05:56:15.357Z,37.07
2018-04-09T05:58:43.524Z,34.40
2018-04-09T06:01:11.702Z,38.20
2018-04-09T06:03:39.885Z,36.60
2018-04-09T06:06:08.898Z,38.37
2018-04-09T06:08:37.042Z,40.23
2018-04-09T06:11:05.208Z,39.20
2018-04-09T06:13:33.352Z,39.00
2018-04-09T06:16:02.315Z,36.53
2018-04-09T06:18:30.417Z,38.00
2018-04-09T06:20:58.643Z,38.07
2018-04-09T06:23:26.819Z,37.27
2018-04-09T06:25:54.969Z,36.97
2018-04-09T06:28:23.109Z,38.37
2018-04-09T06:30:51.265Z,38.30
2018-04-09T06:33:20.169Z,39.70
2018-04-09T06:35:49.138Z,38.30
2018-04-09T06:38:18.174Z,37.10
2018-04-09T06:40:46.420Z,35.50
2018-04-09T06:43:15.364Z,37.47
2018-04-09T06:45:43.534Z,37.67
2018-04-09T06:48:11.673Z,37.40
2018-04-09T06:50:40.098Z,35.60
2018-04-09T06:53:08.929Z,37.50
2018-04-09T06:55:37.139Z,36.03
2018-04-09T06:58:05.946Z,35.77
2018-04-09T07:00:34.086Z,35.87
2018-04-09T07:03:02.238Z,36.30
2018-04-09T07:05:31.142Z,36.47
2018-04-09T07:07:59.292Z,35.63
2018-04-09T07:10:28.228Z,37.33
2018-04-09T07:12:56.397Z,37.47
2018-04-09T07:15:24.571Z,38.40
2018-04-09T07:17:53.508Z,39.73
2018-04-09T07:20:21.717Z,36.57
2018-04-09T07:22:49.858Z,38.07
2018-04-09T07:25:18.809Z,38.73
2018-04-09T07:27:46.971Z,35.10
2018-04-09T07:30:15.120Z,36.20
2018-04-09T07:32:43.264Z,36.57
2018-04-09T07:35:12.163Z,35.37
2018-04-09T07:37:41.103Z,35.13
2018-04-09T07:40:09.348Z,36.47
2018-04-09T07:42:37.505Z,35.97
2018-04-09T07:45:06.414Z,35.63
2018-04-09T07:47:34.573Z,34.63
2018-04-09T07:50:02.823Z,34.67
2018-04-09T07:52:31.042Z,36.67
2018-04-09T07:54:59.210Z,34.97
2018-04-09T07:57:27.784Z,36.17
2018-04-09T07:59:56.098Z,35.33
2018-04-09T08:02:25.942Z,33.53
2018-04-09T08:04:54.879Z,36.43
2018-04-09T08:07:23.131Z,35.33
2018-04-09T08:09:52.023Z,34.30
2018-04-09T08:12:20.956Z,36.73
2018-04-09T08:14:49.127Z,35.53
2018-04-09T08:17:17.262Z,35.00
2018-04-09T08:19:46.162Z,35.63
2018-04-09T08:22:14.883Z,37.57
2018-04-09T08:24:43.052Z,37.67
2018-04-09T08:27:11.265Z,34.80
2018-04-09T08:29:40.201Z,33.90
2018-04-09T08:32:08.387Z,34.40
2018-04-09T08:34:36.572Z,36.73
2018-04-09T08:37:05.124Z,36.67
2018-04-09T08:39:33.326Z,34.80
2018-04-09T08:42:01.505Z,37.53
2018-04-09T08:44:29.714Z,35.47
2018-04-09T08:46:58.691Z,37.40
2018-04-09T08:49:26.850Z,36.47
2018-04-09T08:51:54.989Z,36.77
2018-04-09T08:54:23.212Z,36.70
2018-04-09T08:56:52.137Z,37.47
2018-04-09T08:59:20.274Z,35.97
2018-04-09T09:01:48.740Z,34.87
2018-04-09T09:04:16.908Z,35.50
2018-04-09T09:06:45.854Z,38.23
2018-04-09T09:09:14.022Z,36.40
2018-04-09T09:11:42.157Z,36.97
2018-04-09T09:14:11.089Z,36.17
2018-04-09T09:16:40.497Z,33.77
2018-04-09T09:19:08.720Z,34.93
2018-04-09T09:21:36.892Z,36.73
2018-04-09T09:24:05.039Z,38.03
2018-04-09T09:26:33.178Z,33.87
2018-04-09T09:29:01.315Z,32.73
2018-04-09T09:31:29.442Z,35.93
2018-04-09T09:33:57.620Z,32.33
2018-04-09T09:36:25.768Z,33.33
2018-04-09T09:38:53.946Z,34.20
2018-04-09T09:41:22.070Z,34.23
2018-04-09T09:43:50.278Z,35.80
2018-04-09T09:46:18.638Z,34.80
2018-04-09T09:48:47.599Z,32.53
2018-04-09T09:51:15.894Z,33.10
2018-04-09T09:53:44.079Z,34.43
2018-04-09T09:56:12.277Z,33.77
2018-04-09T09:58:40.448Z,32.60
2018-04-09T10:01:09.438Z,33.50
2018-04-09T10:03:37.597Z,34.50
2018-04-09T10:06:06.774Z,33.37
2018-04-09T10:08:34.932Z,33.93
2018-04-09T10:11:03.422Z,35.30
2018-04-09T10:13:31.577Z,33.73
2018-04-09T10:15:59.749Z,32.43
2018-04-09T10:18:27.987Z,31.80
2018-04-09T10:20:56.151Z,32.00
2018-04-09T10:23:25.337Z,30.73
2018-04-09T10:25:54.259Z,32.70
2018-04-09T10:28:22.403Z,31.10
2018-04-09T10:30:51.559Z,31.40
2018-04-09T10:33:20.524Z,33.50
2018-04-09T10:35:48.802Z,32.70
2018-04-09T10:38:17.108Z,34.33
2018-04-09T10:40:45.274Z,31.57
2018-04-09T10:43:13.417Z,31.33
2018-04-09T10:45:41.596Z,30.73
2018-04-09T10:48:09.758Z,29.80
2018-04-09T10:50:37.910Z,31.00
2018-04-09T10:53:06.153Z,29.77
2018-04-09T10:55:35.153Z,30.20
2018-04-09T10:58:03.296Z,29.67
2018-04-09T11:00:31.495Z,32.60
2018-04-09T11:02:59.667Z,31.23
2018-04-09T11:05:28.272Z,27.50
2018-04-09T11:07:56.544Z,32.17
2018-04-09T11:10:24.955Z,32.83
2018-04-09T11:12:53.168Z,32.57
2018-04-09T11:15:21.353Z,32.97
2018-04-09T11:17:49.490Z,33.10
2018-04-09T11:20:18.391Z,31.50
2018-04-09T11:22:46.568Z,31.40
2018-04-09T11:25:14.734Z,31.67
2018-04-09T11:27:42.972Z,29.93
2018-04-09T11:30:11.142Z,32.90
2018-04-09T11:32:39.284Z,30.60
2018-04-09T11:35:08.273Z,32.57
2018-04-09T11:37:37.213Z,32.50
2018-04-09T11:40:05.503Z,33.47
2018-04-09T11:42:33.705Z,30.27
2018-04-09T11:45:02.712Z,30.40
2018-04-09T11:47:30.984Z,31.47
2018-04-09T11:49:59.244Z,31.80
2018-04-09T11:52:27.419Z,33.40
2018-04-09T11:54:55.557Z,31.03
2018-04-09T11:57:23.852Z,31.53
2018-04-09T11:59:52.060Z,33.90
2018-04-09T12:02:20.330Z,31.43
2018-04-09T12:04:48.557Z,32.03
2018-04-09T12:07:16.722Z,30.90
2018-04-09T12:09:44.865Z,31.37
2018-04-09T12:12:13.823Z,30.73
2018-04-09T12:14:42.045Z,30.70
2018-04-09T12:17:10.217Z,32.37
2018-04-09T12:19:38.383Z,30.33
2018-04-09T12:22:07.342Z,31.10
2018-04-09T12:24:35.505Z,30.77
2018-04-09T12:27:03.665Z,30.70
2018-04-09T12:29:31.928Z,29.17
2018-04-09T12:32:00.097Z,29.70
2018-04-09T12:34:28.243Z,31.67
2018-04-09T12:36:57.214Z,30.07
2018-04-09T12:39:26.121Z,29.57
2018-04-09T12:41:54.265Z,31.23
2018-04-09T12:44:22.480Z,30.40
2018-04-09T12:46:50.655Z,31.63
2018-04-09T12:49:18.834Z,31.80
2018-04-09T12:51:47.234Z,31.17
2018-04-09T12:54:15.434Z,31.40
2018-04-09T12:56:43.560Z,33.23
2018-04-09T12:59:11.708Z,32.67
2018-04-09T13:01:40.261Z,29.30
2018-04-09T13:04:08.404Z,30.70
2018-04-09T13:06:36.718Z,32.80
2018-04-09T13:09:04.917Z,34.57
2018-04-09T13:11:33.084Z,30.37
2018-04-09T13:14:01.223Z,31.40
2018-04-09T13:16:29.438Z,28.63
2018-04-09T13:18:57.709Z,33.27
2018-04-09T13:21:25.866Z,33.27
2018-04-09T13:23:54.789Z,32.10
2018-04-09T13:26:23.836Z,35.47
2018-04-09T13:28:52.005Z,35.83
2018-04-09T13:31:20.195Z,34.50
2018-04-09T13:33:49.184Z,30.50
2018-04-09T13:36:18.282Z,32.80
2018-04-09T13:38:47.251Z,33.13
2018-04-09T13:41:15.427Z,32.93
2018-04-09T13:43:43.574Z,32.53
2018-04-09T13:46:11.721Z,30.97
2018-04-09T13:48:39.869Z,32.07
2018-04-09T13:51:08.815Z,31.67
2018-04-09T13:53:36.962Z,32.10
2018-04-09T13:56:05.093Z,30.57
2018-04-09T13:58:33.343Z,32.30
2018-04-09T14:01:01.698Z,30.47
2018-04-09T14:03:30.010Z,29.67
2018-04-09T14:05:58.253Z,31.67
2018-04-09T14:08:26.465Z,31.13
2018-04-09T14:10:55.573Z,33.00
2018-04-09T14:13:23.732Z,32.13
2018-04-09T14:15:51.930Z,33.90
2018-04-09T14:18:20.082Z,31.97
2018-04-09T14:20:48.987Z,31.80
2018-04-09T14:23:17.226Z,24.00
2018-04-09T14:25:45.442Z,23.10
2018-04-09T14:28:13.601Z,25.40
2018-04-09T14:30:42.577Z,23.73
2018-04-09T14:33:10.817Z,27.00
2018-04-09T14:35:38.983Z,25.93
2018-04-09T14:38:07.211Z,27.87
2018-04-09T14:40:36.554Z,30.67
2018-04-09T14:43:05.300Z,28.60
2018-04-09T14:45:35.168Z,27.83
2018-04-09T14:48:03.599Z,29.10
2018-04-09T14:50:32.799Z,28.07
2018-04-09T14:53:01.806Z,29.17
2018-04-09T14:55:29.992Z,27.87
2018-04-09T14:57:58.152Z,24.83
2018-04-09T15:00:26.379Z,28.00
2018-04-09T15:02:54.567Z,26.30
2018-04-09T15:05:22.697Z,26.43
2018-04-09T15:07:50.868Z,25.20
2018-04-09T15:10:19.001Z,23.00
2018-04-09T15:12:47.955Z,22.37
2018-04-09T15:15:16.149Z,21.40
2018-04-09T15:17:45.066Z,22.00
2018-04-09T15:20:13.241Z,20.20
2018-04-09T15:22:41.405Z,21.97
2018-04-09T15:25:09.616Z,22.30
2018-04-09T15:27:37.829Z,22.47
2018-04-09T15:30:05.973Z,21.07
2018-04-09T15:32:34.175Z,20.50
2018-04-09T15:35:02.385Z,20.30
2018-04-09T15:37:30.536Z,19.90
2018-04-09T15:39:59.514Z,22.70
2018-04-09T15:42:27.699Z,22.40
2018-04-09T15:44:56.626Z,21.30
2018-04-09T15:47:25.640Z,23.23
2018-04-09T15:49:53.855Z,20.33
2018-04-09T15:52:22.763Z,20.17
2018-04-09T15:54:51.286Z,21.30
2018-04-09T15:57:19.424Z,24.63
2018-04-09T15:59:47.698Z,30.93
2018-04-09T16:02:16.699Z,39.87
2018-04-09T16:04:45.058Z,39.90
2018-04-09T16:07:13.205Z,44.87
2018-04-09T16:09:41.385Z,45.13
2018-04-09T16:12:13.350Z,49.97
2018-04-09T16:14:42.347Z,45.33
2018-04-09T16:17:11.512Z,48.57
2018-04-09T16:19:39.756Z,47.80
2018-04-09T16:22:07.910Z,50.57
2018-04-09T16:24:36.067Z,50.37
2018-04-09T16:27:04.975Z,49.10
2018-04-09T16:29:33.162Z,48.30
2018-04-09T16:32:02.637Z,51.47
2018-04-09T16:34:34.555Z,51.73
2018-04-09T16:37:02.810Z,51.00
2018-04-09T16:39:31.024Z,49.93
2018-04-09T16:42:00.204Z,50.90
2018-04-09T16:44:28.334Z,49.73
2018-04-09T16:46:57.528Z,49.40
2018-04-09T16:49:25.907Z,51.63
2018-04-09T16:51:54.340Z,51.97
2018-04-09T16:54:22.723Z,52.90
2018-04-09T16:56:50.909Z,52.97
2018-04-09T16:59:20.387Z,53.50
2018-04-09T17:01:48.574Z,52.10
2018-04-09T17:04:17.495Z,45.57
2018-04-09T17:06:45.708Z,50.70
2018-04-09T17:09:13.998Z,51.27
2018-04-09T17:11:42.120Z,49.00
2018-04-09T17:14:10.353Z,47.13
2018-04-09T17:16:38.499Z,49.30
2018-04-09T17:19:06.626Z,44.10
2018-04-09T17:21:34.789Z,46.93
2018-04-09T17:24:02.967Z,44.80
2018-04-09T17:26:31.936Z,46.50
2018-04-09T17:29:00.947Z,48.77
2018-04-09T17:31:29.145Z,46.63
2018-04-09T17:33:57.283Z,44.20
2018-04-09T17:36:26.223Z,44.63
2018-04-09T17:38:54.415Z,40.50
2018-04-09T17:41:22.561Z,42.33
2018-04-09T17:43:50.789Z,44.33
2018-04-09T17:46:18.916Z,42.47
2018-04-09T17:48:47.070Z,44.57
2018-04-09T17:51:15.573Z,39.50
2018-04-09T17:53:44.054Z,44.13
2018-04-09T17:56:12.270Z,39.17
2018-04-09T17:58:42.833Z,43.40
2018-04-09T18:01:11.839Z,37.63
2018-04-09T18:03:40.761Z,47.87
2018-04-09T18:06:08.971Z,46.97
2018-04-09T18:08:37.192Z,45.37
2018-04-09T18:11:05.434Z,45.70
2018-04-09T18:13:33.591Z,45.67
2018-04-09T18:16:01.767Z,43.67
2018-04-09T18:18:30.069Z,44.13
2018-04-09T18:20:58.214Z,42.53
2018-04-09T18:23:27.152Z,44.20
2018-04-09T18:25:55.297Z,43.90
2018-04-09T18:28:23.469Z,43.70
2018-04-09T18:30:51.653Z,43.13
2018-04-09T18:33:19.868Z,44.43
2018-04-09T18:35:48.134Z,44.77
2018-04-09T18:38:17.116Z,42.93
2018-04-09T18:40:45.506Z,44.77
2018-04-09T18:43:13.789Z,42.77
2018-04-09T18:45:42.766Z,42.40
2018-04-09T18:48:11.124Z,46.17
2018-04-09T18:50:40.057Z,44.57
2018-04-09T18:53:08.337Z,45.80
2018-04-09T18:55:36.497Z,44.43
2018-04-09T18:58:04.677Z,45.80
2018-04-09T19:00:33.645Z,45.67
2018-04-09T19:03:01.845Z,49.33
2018-04-09T19:05:29.977Z,50.00
2018-04-09T19:07:59.056Z,44.77
2018-04-09T19:10:27.238Z,51.50
2018-04-09T19:12:56.271Z,49.70
2018-04-09T19:15:25.360Z,50.13
2018-04-09T19:17:58.447Z,51.13
2018-04-09T19:20:26.670Z,53.27
2018-04-09T19:22:56.939Z,52.67
2018-04-09T19:25:25.220Z,53.60
2018-04-09T19:27:53.585Z,54.77
2018-04-09T19:30:21.866Z,54.10
2018-04-09T19:32:50.302Z,53.47
2018-04-09T19:35:18.728Z,56.27
2018-04-09T19:37:53.270Z,54.27
2018-04-09T19:40:27.060Z,49.77
2018-04-09T19:42:55.583Z,56.87
2018-04-09T19:45:23.954Z,53.97
2018-04-09T19:47:55.275Z,54.37
2018-04-09T19:50:23.590Z,55.57
2018-04-09T19:52:51.950Z,54.90
2018-04-09T19:55:20.260Z,53.63
2018-04-09T19:57:48.475Z,56.67
2018-04-09T20:00:16.671Z,55.57
2018-04-09T20:02:45.620Z,54.90
2018-04-09T20:05:13.861Z,53.17
2018-04-09T20:07:42.254Z,53.17
2018-04-09T20:10:10.574Z,54.90
2018-04-09T20:12:38.742Z,54.97
2018-04-09T20:15:06.942Z,55.43
2018-04-09T20:17:36.187Z,53.83
2018-04-09T20:20:04.871Z,54.17
2018-04-09T20:22:33.093Z,53.43
2018-04-09T20:25:02.757Z,55.33
2018-04-09T20:27:30.982Z,54.17
2018-04-09T20:29:59.617Z,55.40
2018-04-09T20:32:27.914Z,54.30
2018-04-09T20:34:56.077Z,54.57
2018-04-09T20:37:24.804Z,56.70
2018-04-09T20:39:53.029Z,50.30
2018-04-09T20:42:21.201Z,55.03
2018-04-09T20:44:49.384Z,54.77
2018-04-09T20:47:17.630Z,56.47
2018-04-09T20:49:45.853Z,54.50
2018-04-09T20:52:14.062Z,56.43
2018-04-09T20:54:42.228Z,54.10
2018-04-09T20:57:10.430Z,52.90
2018-04-09T20:59:39.365Z,57.63
2018-04-09T21:02:08.310Z,54.47
2018-04-09T21:04:36.683Z,56.47
2018-04-09T21:07:05.235Z,58.03
2018-04-09T21:09:34.273Z,55.93
2018-04-09T21:12:02.400Z,58.33
2018-04-09T21:14:31.330Z,57.30
2018-04-09T21:17:02.957Z,58.10
2018-04-09T21:19:31.295Z,57.43
2018-04-09T21:21:59.437Z,58.70
2018-04-09T21:24:27.677Z,57.63
2018-04-09T21:26:55.830Z,59.70
2018-04-09T21:29:24.098Z,60.20
2018-04-09T21:31:52.255Z,58.10
2018-04-09T21:34:20.454Z,58.80
2018-04-09T21:36:49.690Z,57.27
2018-04-09T21:39:17.864Z,53.47
2018-04-09T21:41:46.035Z,56.20
2018-04-09T21:44:14.173Z,58.90
2018-04-09T21:46:42.418Z,57.60
2018-04-09T21:49:10.577Z,59.20
2018-04-09T21:51:38.738Z,56.83
2018-04-09T21:54:06.897Z,58.40
2018-04-09T21:56:35.085Z,54.17
2018-04-09T21:59:03.320Z,60.10
2018-04-09T22:01:31.462Z,59.00
2018-04-09T22:04:00.317Z,56.23
2018-04-09T22:06:28.502Z,57.60
2018-04-09T22:09:02.199Z,56.87
2018-04-09T22:11:31.258Z,55.63
2018-04-09T22:14:03.219Z,56.93
2018-04-09T22:16:32.311Z,56.67
2018-04-09T22:19:00.460Z,56.77
2018-04-09T22:21:43.913Z,53.17
2018-04-09T22:24:12.049Z,54.30
2018-04-09T22:26:41.056Z,58.70
2018-04-09T22:29:10.247Z,58.10
2018-04-09T22:31:58.273Z,55.07
2018-04-09T22:34:26.425Z,55.00
2018-04-09T22:37:07.580Z,56.93
2018-04-09T22:42:28.091Z,55.37
2018-04-09T22:44:58.046Z,56.57
2018-04-09T22:47:26.324Z,58.33
2018-04-09T22:49:54.473Z,56.17
2018-04-09T22:52:22.700Z,55.47
2018-04-09T22:54:51.629Z,55.70
2018-04-09T23:00:13.884Z,56.47
2018-04-09T23:02:49.904Z,56.97
2018-04-09T23:05:24.998Z,59.07
2018-04-09T23:08:15.151Z,57.60
2018-04-09T23:10:43.405Z,54.97
2018-04-09T23:13:13.256Z,55.03
2018-04-09T23:15:55.214Z,56.67
2018-04-09T23:18:23.288Z,53.50
2018-04-09T23:20:51.450Z,57.20
2018-04-09T23:23:20.371Z,57.40
2018-04-09T23:26:06.462Z,55.87
2018-04-09T23:28:59.593Z,55.57
2018-04-09T23:31:31.442Z,53.23
2018-04-09T23:33:59.603Z,55.27
2018-04-09T23:36:27.797Z,55.53
2018-04-09T23:39:27.896Z,55.90
2018-04-09T23:41:57.934Z,54.83
2018-04-09T23:44:26.866Z,52.70
2018-04-09T23:46:55.009Z,54.37
2018-04-09T23:52:23.460Z,54.57
2018-04-09T23:55:08.714Z,56.50
2018-04-09T23:57:36.901Z,52.40
